MSC Lea — 9HA2639 — position and weather

sailwx.info

Track history (hours):
 
Tides and Currents Weather Stations Pressure Air Temp Water Temp Dewpoint Dewpoint Depression Visibility Wind Speed Wind Dir Waves Ship Positions

MSC Lea

Last reported at 2017-May-28 18:30 UTC. Time now 2017-May-28 18:40 UTC.
Position N 32°52' E 034°48'.

Length 216 m; draft 10.4 m.

Type: Ship (hazmat cat D). MMSI: 215101000.

Date/timePositionNaut miles runAvg speedWind from/ knotsBaromVisibWave heightAir tempDewpointWater temp
2017-May-28 18:30N 32°52' E 034°48'611.1
2017-May-28 18:00N 32°54' E 034°54'611.8
2017-May-28 17:30N 32°51' E 035°01'2 4.0
2017-May-28 16:59N 32°49' E 035°01'0 0.0
2017-May-28 16:29N 32°49' E 035°01'0 0.0
2017-May-28 15:59N 32°49' E 035°01'0 0.0
2017-May-28 15:29N 32°49' E 035°01'0 0.1
2017-May-28 14:59N 32°49' E 035°01'0 0.0
2017-May-28 13:59N 32°49' E 035°01'0 0.0
2017-May-28 13:29N 32°49' E 035°01'0 0.0
2017-May-28 12:59N 32°49' E 035°01'0 0.0
2017-May-28 12:29N 32°49' E 035°01'0 0.0
2017-May-28 11:59N 32°49' E 035°01'0 0.0
2017-May-28 11:29N 32°49' E 035°01'0 0.0
2017-May-28 10:59N 32°49' E 035°01'0 0.0
2017-May-28 10:29N 32°49' E 035°01'0 0.0
2017-May-28 09:59N 32°49' E 035°01'0 0.0
2017-May-28 09:29N 32°49' E 035°01'0 0.0
2017-May-28 08:59N 32°49' E 035°01'0 0.0
2017-May-28 08:29N 32°49' E 035°01'0 0.0
2017-May-28 07:59N 32°49' E 035°01'0 0.0
2017-May-28 07:29N 32°49' E 035°01'0 0.0
2017-May-28 06:59N 32°49' E 035°01'0 0.0
2017-May-28 06:29N 32°49' E 035°01'0 0.0
2017-May-28 05:59N 32°49' E 035°01'0 0.0
2017-May-28 05:29N 32°49' E 035°01'0 0.0
2017-May-28 04:59N 32°49' E 035°01'0 0.0
2017-May-28 04:29N 32°49' E 035°01'0 0.0
2017-May-28 03:53N 32°49' E 035°01'0 0.1
2017-May-28 03:29N 32°49' E 035°01'0 0.0
2017-May-28 03:00N 32°49' E 035°01'1 1.1
2017-May-28 02:30N 32°49' E 035°01'2 3.5
2017-May-28 02:00N 32°51' E 035°00'3 6.2
2017-May-28 01:30N 32°52' E 034°57'4 7.0
2017-May-28 01:00N 32°53' E 034°53'510.4
2017-May-28 00:30N 32°54' E 034°47'510.7
2017-May-28 00:00N 32°55' E 034°40'611.0
2017-May-27 23:30N 32°56' E 034°34'611.7
2017-May-27 23:00N 32°57' E 034°27'713.1
2017-May-27 22:30N 32°58' E 034°19'713.1
2017-May-27 22:00N 32°60' E 034°12'713.1
2017-May-27 21:30N 33°01' E 034°04'613.0
2017-May-27 21:00N 33°02' E 033°57'613.0
2017-May-27 20:30N 33°04' E 033°49'613.0
2017-May-27 20:00N 33°06' E 033°42'612.8
2017-May-27 19:30N 33°07' E 033°34'612.8
2017-May-27 19:00N 33°09' E 033°27'612.9
2017-May-27 18:30N 33°10' E 033°19'612.7
2017-May-27 18:00N 33°12' E 033°12'612.7
2017-May-27 17:30N 33°13' E 033°05'612.6
2017-May-27 17:00N 33°14' E 032°57'1612.4
2017-May-27 15:41N 33°18' E 032°38'212.4
2017-May-27 15:30N 33°19' E 032°36'612.3
2017-May-27 15:00N 33°20' E 032°28'1212.3
2017-May-27 14:00N 33°23' E 032°14'612.5
2017-May-27 13:30N 33°24' E 032°07'612.4
2017-May-27 13:00N 33°26' E 031°59'612.3
2017-May-27 12:30N 33°27' E 031°52'612.3
2017-May-27 12:00N 33°28' E 031°45'1712.4
2017-May-27 10:40N 33°32' E 031°26'212.7
2017-May-27 10:30N 33°32' E 031°23'3311.8
2017-May-27 07:42N 33°39' E 030°44'313.5
2017-May-27 07:30N 33°40' E 030°41'713.7
2017-May-27 07:00N 33°42' E 030°33'1114.1
2017-May-27 06:15N 33°44' E 030°21'414.2
2017-May-27 06:00N 33°45' E 030°17'  
2017-May-24 23:24N 40°36' E 018°24'714.4
2017-May-24 22:56N 40°40' E 018°17'31513.9
2017-May-24 00:13N 44°36' E 013°34'314.4
2017-May-24 00:01N 44°39' E 013°32'714.4
2017-May-23 23:30N 44°45' E 013°26'714.3
2017-May-23 23:01N 44°50' E 013°20'713.8
2017-May-23 22:30N 44°54' E 013°12'714.2
2017-May-23 22:00N 44°56' E 013°02'714.2
2017-May-23 21:30N 44°57' E 012°52'612.5
2017-May-23 21:00N 45°01' E 012°45'713.3
2017-May-23 20:30N 45°06' E 012°40'713.1
2017-May-23 20:00N 45°11' E 012°33'612.7
2017-May-23 19:30N 45°16' E 012°28'510.0
2017-May-23 19:00N 45°19' E 012°23'5 9.4
2017-May-23 18:30N 45°21' E 012°16'4 8.6
2017-May-23 18:00N 45°25' E 012°16'2 4.4
2017-May-23 17:29N 45°27' E 012°15'0 0.0
2017-May-23 16:59N 45°27' E 012°15'0 0.0
2017-May-23 16:29N 45°27' E 012°15'0 0.0
2017-May-23 15:59N 45°27' E 012°15'0 0.0
2017-May-23 15:29N 45°27' E 012°15'0 0.0
2017-May-23 14:59N 45°27' E 012°15'0 0.0
2017-May-23 14:29N 45°27' E 012°15'0 0.0
2017-May-23 13:29N 45°27' E 012°15'0 0.0
2017-May-23 12:56N 45°27' E 012°15'0 0.0
2017-May-23 12:29N 45°27' E 012°15'0 0.0
2017-May-23 11:59N 45°27' E 012°15'0 0.0
2017-May-23 11:29N 45°27' E 012°15'0 0.0
2017-May-23 10:59N 45°27' E 012°15'0 0.0
2017-May-23 10:29N 45°27' E 012°15'0 0.0
2017-May-23 09:59N 45°27' E 012°15'0 0.0
2017-May-23 09:29N 45°27' E 012°15'0 0.0
2017-May-23 08:59N 45°27' E 012°15'0 0.0
2017-May-23 08:29N 45°27' E 012°15'0 0.0
2017-May-23 07:59N 45°27' E 012°15'0 0.0
2017-May-23 07:29N 45°27' E 012°15'0 0.8
2017-May-23 07:01N 45°27' E 012°16'3 6.3
2017-May-23 06:31N 45°24' E 012°16'4 7.8
2017-May-23 06:01N 45°20' E 012°18'5 9.5
2017-May-23 05:30N 45°20' E 012°25'3 5.6
2017-May-23 04:59N 45°21' E 012°29'0 0.0
2017-May-23 04:29N 45°21' E 012°29'0 0.1
2017-May-23 03:59N 45°21' E 012°29'0 0.5
2017-May-23 03:31N 45°21' E 012°29'4 7.2
2017-May-23 03:00N 45°18' E 012°31'4 8.2
2017-May-23 02:31N 45°15' E 012°36'4 8.4
2017-May-23 02:00N 45°12' E 012°41'4 8.6
2017-May-23 01:31N 45°10' E 012°45'4 8.3
2017-May-23 01:01N 45°06' E 012°49'4 8.5
2017-May-23 00:31N 45°03' E 012°51'4 8.9
2017-May-23 00:01N 44°59' E 012°54'4 8.6
2017-May-22 23:31N 44°55' E 012°56'4 8.6
2017-May-22 23:01N 44°50' E 012°56'4 8.1
2017-May-22 22:31N 44°47' E 012°53'4 8.6
2017-May-22 22:01N 44°45' E 012°48'4 8.1
2017-May-22 21:31N 44°43' E 012°43'4 8.3
2017-May-22 21:01N 44°39' E 012°41'4 8.4
2017-May-22 20:30N 44°35' E 012°39'4 8.7
2017-May-22 20:00N 44°31' E 012°38'3 7.1
2017-May-22 19:30N 44°28' E 012°36'4 8.5
2017-May-22 19:01N 44°29' E 012°30'4 8.6
2017-May-22 18:31N 44°30' E 012°25'4 7.5
2017-May-22 18:00N 44°30' E 012°19'3 5.8
2017-May-22 17:30N 44°29' E 012°16'2 3.6
2017-May-22 17:00N 44°27' E 012°15'0 0.0
2017-May-22 16:27N 44°27' E 012°15'0 0.0
2017-May-22 16:00N 44°27' E 012°15'0 0.0
2017-May-22 15:30N 44°27' E 012°15'0 0.0
2017-May-22 15:00N 44°27' E 012°15'0 0.0
2017-May-22 14:24N 44°27' E 012°15'0 0.0
2017-May-22 09:30N 44°27' E 012°15'0 0.0
2017-May-22 08:54N 44°27' E 012°15'0 0.0
2017-May-22 06:45N 44°27' E 012°15'0 0.0
2017-May-22 06:30N 44°27' E 012°15'0 0.8
2017-May-22 06:00N 44°27' E 012°15'1 2.9
2017-May-22 05:30N 44°28' E 012°15'3 5.1
2017-May-22 05:00N 44°30' E 012°18'3 5.5
2017-May-22 04:30N 44°30' E 012°22'3 5.2
2017-May-22 04:00N 44°30' E 012°25'1 2.5
2017-May-22 03:30N 44°30' E 012°27'0 0.0
2017-May-22 03:00N 44°30' E 012°27'0 0.0
2017-May-22 02:27N 44°30' E 012°27'0 0.0
2017-May-22 02:00N 44°30' E 012°27'0 0.0
2017-May-22 01:30N 44°30' E 012°27'0 0.0
2017-May-22 01:00N 44°30' E 012°27'0 0.0
2017-May-21 23:48N 44°30' E 012°27'0 0.0
2017-May-21 23:06N 44°30' E 012°27'0 0.0
2017-May-21 22:48N 44°30' E 012°27'3 1.2
2017-May-21 20:33N 44°29' E 012°31'2 9.1
2017-May-21 20:19N 44°30' E 012°34'711.5
2017-May-21 19:42N 44°35' E 012°41'314.2
2017-May-21 19:30N 44°37' E 012°43'714.3
2017-May-21 19:00N 44°44' E 012°47'714.1
2017-May-21 18:30N 44°50' E 012°52'714.0
2017-May-21 18:01N 44°56' E 012°56'714.2
2017-May-21 17:31N 45°03' E 012°59'714.2
2017-May-21 17:01N 45°10' E 013°01'714.2
2017-May-21 16:30N 45°17' E 013°02'713.8
2017-May-21 16:00N 45°24' E 013°05'714.5
2017-May-21 15:30N 45°29' E 013°12'714.3
2017-May-21 15:00N 45°34' E 013°19'1413.8
2017-May-21 14:00N 45°39' E 013°38'4 8.6
2017-May-21 13:30N 45°38' E 013°44'1 2.7
2017-May-21 12:59N 45°38' E 013°46'0 0.0
2017-May-21 12:29N 45°38' E 013°46'0 0.0
2017-May-21 11:59N 45°38' E 013°46'0 0.0
2017-May-21 11:29N 45°38' E 013°46'0 0.0
2017-May-21 10:59N 45°38' E 013°46'0 0.0
2017-May-21 10:29N 45°38' E 013°46'0 0.0
2017-May-21 09:53N 45°38' E 013°46'0 0.0
2017-May-21 09:17N 45°38' E 013°46'0 0.0
2017-May-21 08:59N 45°38' E 013°46'0 0.0
2017-May-21 08:29N 45°38' E 013°46'0 0.0
2017-May-21 07:59N 45°38' E 013°46'0 0.0
2017-May-21 07:29N 45°38' E 013°46'0 0.0
2017-May-21 06:53N 45°38' E 013°46'0 0.0
2017-May-21 06:29N 45°38' E 013°46'0 0.0
2017-May-21 05:59N 45°38' E 013°46'0 0.0
2017-May-21 05:29N 45°38' E 013°46'0 0.0
2017-May-21 04:59N 45°38' E 013°46'0 0.0
2017-May-21 04:29N 45°38' E 013°46'0 0.0
2017-May-21 03:59N 45°38' E 013°46'0 0.0
2017-May-21 03:29N 45°38' E 013°46'0 0.0
2017-May-21 02:59N 45°38' E 013°46'0 0.0
2017-May-21 02:29N 45°38' E 013°46'0 0.0
2017-May-21 01:59N 45°38' E 013°46'0 0.0
2017-May-21 01:29N 45°38' E 013°46'0 0.0
2017-May-21 00:59N 45°38' E 013°46'0 0.0
2017-May-21 00:29N 45°38' E 013°46'0 0.0
2017-May-20 23:59N 45°38' E 013°46'0 0.2
2017-May-20 23:30N 45°38' E 013°46'2 4.4
2017-May-20 23:01N 45°38' E 013°43'2 3.6
2017-May-20 22:30N 45°39' E 013°40'4 8.2
2017-May-20 22:01N 45°35' E 013°41'3 5.3
2017-May-20 21:30N 45°33' E 013°44'0 0.6
2017-May-20 20:59N 45°33' E 013°44'0 0.0
2017-May-20 20:29N 45°33' E 013°44'0 0.0
2017-May-20 19:59N 45°33' E 013°44'0 0.0
2017-May-20 19:29N 45°33' E 013°44'0 0.0
2017-May-20 18:59N 45°33' E 013°44'0 0.0
2017-May-20 18:29N 45°33' E 013°44'0 0.0
2017-May-20 17:59N 45°33' E 013°44'0 0.0
2017-May-20 17:29N 45°33' E 013°44'0 0.0
2017-May-20 16:59N 45°33' E 013°44'0 0.0
2017-May-20 16:23N 45°33' E 013°44'0 0.0
2017-May-20 15:53N 45°33' E 013°44'0 0.0
2017-May-20 15:29N 45°33' E 013°44'0 0.0
2017-May-20 14:59N 45°33' E 013°44'0 0.0
2017-May-20 13:53N 45°33' E 013°44'0 0.0
2017-May-20 13:29N 45°33' E 013°44'0 0.0
2017-May-20 12:59N 45°33' E 013°44'0 0.0
2017-May-20 12:29N 45°33' E 013°44'0 0.0
2017-May-20 11:50N 45°33' E 013°44'0 0.0
2017-May-20 11:29N 45°33' E 013°44'0 0.0
2017-May-20 10:53N 45°33' E 013°44'0 0.0
2017-May-20 10:29N 45°33' E 013°44'0 0.0
2017-May-20 09:59N 45°33' E 013°44'0 0.0
2017-May-20 09:29N 45°33' E 013°44'0 0.0
2017-May-20 08:59N 45°33' E 013°44'0 0.0
2017-May-20 08:26N 45°33' E 013°44'0 0.0
2017-May-20 07:59N 45°33' E 013°44'0 0.0
2017-May-20 07:29N 45°33' E 013°44'0 0.2
2017-May-20 07:00N 45°33' E 013°44'3 5.2
2017-May-20 06:31N 45°34' E 013°41'0 0.3
2017-May-20 06:00N 45°34' E 013°41'0 0.1
2017-May-20 05:30N 45°34' E 013°41'0 0.0
2017-May-20 05:00N 45°34' E 013°41'0 0.0
2017-May-20 04:30N 45°34' E 013°41'0 0.0
2017-May-20 04:00N 45°34' E 013°41'0 0.6
2017-May-20 03:30N 45°34' E 013°40'3 5.2
2017-May-20 03:00N 45°35' E 013°37'2 4.4
2017-May-20 02:30N 45°35' E 013°33'3 6.0
2017-May-20 02:00N 45°34' E 013°29'510.5
2017-May-20 01:30N 45°31' E 013°23'511.0
2017-May-20 01:00N 45°27' E 013°18'611.3
2017-May-20 00:30N 45°22' E 013°12'611.0
2017-May-20 00:00N 45°17' E 013°13'611.5
2017-May-19 23:30N 45°11' E 013°15'611.4
2017-May-19 23:00N 45°06' E 013°18'611.4
2017-May-19 22:30N 45°01' E 013°21'611.7
2017-May-19 22:00N 44°56' E 013°25'611.6
2017-May-19 21:30N 44°51' E 013°29'611.5
2017-May-19 21:00N 44°46' E 013°33'611.7
2017-May-19 20:30N 44°41' E 013°38'611.6
2017-May-19 20:00N 44°36' E 013°42'611.7
2017-May-19 19:30N 44°31' E 013°47'611.8
2017-May-19 19:00N 44°26' E 013°51'612.1
2017-May-19 18:30N 44°21' E 013°56'611.8
2017-May-19 18:00N 44°16' E 014°01'611.9
2017-May-19 17:30N 44°11' E 014°05'612.1
2017-May-19 17:00N 44°06' E 014°10'713.9
2017-May-19 16:30N 44°01' E 014°16'1214.0
2017-May-19 15:40N 43°52' E 014°26'214.1
2017-May-19 15:30N 43°50' E 014°28'2214.4
2017-May-19 13:58N 43°32' E 014°46'714.5
2017-May-19 13:30N 43°26' E 014°51'714.6
2017-May-19 13:00N 43°20' E 014°57'714.7
2017-May-19 12:30N 43°14' E 015°03'20414.4
2017-May-18 22:23N 40°49' E 018°15'1314.2
2017-May-18 21:30N 40°40' E 018°27'714.3
2017-May-18 21:00N 40°34' E 018°32'713.9
2017-May-18 20:29N 40°29' E 018°38'714.0
2017-May-18 19:59N 40°22' E 018°42'1213.8
2017-May-18 19:08N 40°13' E 018°50'314.5
2017-May-18 18:57N 40°10' E 018°52'  
Track history (hours):
 
Tides and Currents Weather Stations Pressure Air Temp Water Temp Dewpoint Dewpoint Depression Visibility Wind Speed Wind Dir Waves Ship Positions

MSC Lea

Last reported at 2017-May-28 18:30 UTC. Time now 2017-May-28 18:40 UTC.
Position N 32°52' E 034°48'.

Length 216 m; draft 10.4 m.

Type: Ship (hazmat cat D). MMSI: 215101000.

Date/timePositionNaut miles runAvg speedWind from/ knotsBaromVisibWave heightAir tempDewpointWater temp
2017-May-28 18:30N 32°52' E 034°48'611.1
2017-May-28 18:00N 32°54' E 034°54'611.8
2017-May-28 17:30N 32°51' E 035°01'2 4.0
2017-May-28 16:59N 32°49' E 035°01'0 0.0
2017-May-28 16:29N 32°49' E 035°01'0 0.0
2017-May-28 15:59N 32°49' E 035°01'0 0.0
2017-May-28 15:29N 32°49' E 035°01'0 0.1
2017-May-28 14:59N 32°49' E 035°01'0 0.0
2017-May-28 13:59N 32°49' E 035°01'0 0.0
2017-May-28 13:29N 32°49' E 035°01'0 0.0
2017-May-28 12:59N 32°49' E 035°01'0 0.0
2017-May-28 12:29N 32°49' E 035°01'0 0.0
2017-May-28 11:59N 32°49' E 035°01'0 0.0
2017-May-28 11:29N 32°49' E 035°01'0 0.0
2017-May-28 10:59N 32°49' E 035°01'0 0.0
2017-May-28 10:29N 32°49' E 035°01'0 0.0
2017-May-28 09:59N 32°49' E 035°01'0 0.0
2017-May-28 09:29N 32°49' E 035°01'0 0.0
2017-May-28 08:59N 32°49' E 035°01'0 0.0
2017-May-28 08:29N 32°49' E 035°01'0 0.0
2017-May-28 07:59N 32°49' E 035°01'0 0.0
2017-May-28 07:29N 32°49' E 035°01'0 0.0
2017-May-28 06:59N 32°49' E 035°01'0 0.0
2017-May-28 06:29N 32°49' E 035°01'0 0.0
2017-May-28 05:59N 32°49' E 035°01'0 0.0
2017-May-28 05:29N 32°49' E 035°01'0 0.0
2017-May-28 04:59N 32°49' E 035°01'0 0.0
2017-May-28 04:29N 32°49' E 035°01'0 0.0
2017-May-28 03:53N 32°49' E 035°01'0 0.1
2017-May-28 03:29N 32°49' E 035°01'0 0.0
2017-May-28 03:00N 32°49' E 035°01'1 1.1
2017-May-28 02:30N 32°49' E 035°01'2 3.5
2017-May-28 02:00N 32°51' E 035°00'3 6.2
2017-May-28 01:30N 32°52' E 034°57'4 7.0
2017-May-28 01:00N 32°53' E 034°53'510.4
2017-May-28 00:30N 32°54' E 034°47'510.7
2017-May-28 00:00N 32°55' E 034°40'611.0
2017-May-27 23:30N 32°56' E 034°34'611.7
2017-May-27 23:00N 32°57' E 034°27'713.1
2017-May-27 22:30N 32°58' E 034°19'713.1
2017-May-27 22:00N 32°60' E 034°12'713.1
2017-May-27 21:30N 33°01' E 034°04'613.0
2017-May-27 21:00N 33°02' E 033°57'613.0
2017-May-27 20:30N 33°04' E 033°49'613.0
2017-May-27 20:00N 33°06' E 033°42'612.8
2017-May-27 19:30N 33°07' E 033°34'612.8
2017-May-27 19:00N 33°09' E 033°27'612.9
2017-May-27 18:30N 33°10' E 033°19'612.7
2017-May-27 18:00N 33°12' E 033°12'612.7
2017-May-27 17:30N 33°13' E 033°05'612.6
2017-May-27 17:00N 33°14' E 032°57'1612.4
2017-May-27 15:41N 33°18' E 032°38'212.4
2017-May-27 15:30N 33°19' E 032°36'612.3
2017-May-27 15:00N 33°20' E 032°28'1212.3
2017-May-27 14:00N 33°23' E 032°14'612.5
2017-May-27 13:30N 33°24' E 032°07'612.4
2017-May-27 13:00N 33°26' E 031°59'612.3
2017-May-27 12:30N 33°27' E 031°52'612.3
2017-May-27 12:00N 33°28' E 031°45'1712.4
2017-May-27 10:40N 33°32' E 031°26'212.7
2017-May-27 10:30N 33°32' E 031°23'3311.8
2017-May-27 07:42N 33°39' E 030°44'313.5
2017-May-27 07:30N 33°40' E 030°41'713.7
2017-May-27 07:00N 33°42' E 030°33'1114.1
2017-May-27 06:15N 33°44' E 030°21'414.2
2017-May-27 06:00N 33°45' E 030°17'  
2017-May-24 23:24N 40°36' E 018°24'714.4
2017-May-24 22:56N 40°40' E 018°17'31513.9
2017-May-24 00:13N 44°36' E 013°34'314.4
2017-May-24 00:01N 44°39' E 013°32'714.4
2017-May-23 23:30N 44°45' E 013°26'714.3
2017-May-23 23:01N 44°50' E 013°20'713.8
2017-May-23 22:30N 44°54' E 013°12'714.2
2017-May-23 22:00N 44°56' E 013°02'714.2
2017-May-23 21:30N 44°57' E 012°52'612.5
2017-May-23 21:00N 45°01' E 012°45'713.3
2017-May-23 20:30N 45°06' E 012°40'713.1
2017-May-23 20:00N 45°11' E 012°33'612.7
2017-May-23 19:30N 45°16' E 012°28'510.0
2017-May-23 19:00N 45°19' E 012°23'5 9.4
2017-May-23 18:30N 45°21' E 012°16'4 8.6
2017-May-23 18:00N 45°25' E 012°16'2 4.4
2017-May-23 17:29N 45°27' E 012°15'0 0.0
2017-May-23 16:59N 45°27' E 012°15'0 0.0
2017-May-23 16:29N 45°27' E 012°15'0 0.0
2017-May-23 15:59N 45°27' E 012°15'0 0.0
2017-May-23 15:29N 45°27' E 012°15'0 0.0
2017-May-23 14:59N 45°27' E 012°15'0 0.0
2017-May-23 14:29N 45°27' E 012°15'0 0.0
2017-May-23 13:29N 45°27' E 012°15'0 0.0
2017-May-23 12:56N 45°27' E 012°15'0 0.0
2017-May-23 12:29N 45°27' E 012°15'0 0.0
2017-May-23 11:59N 45°27' E 012°15'0 0.0
2017-May-23 11:29N 45°27' E 012°15'0 0.0
2017-May-23 10:59N 45°27' E 012°15'0 0.0
2017-May-23 10:29N 45°27' E 012°15'0 0.0
2017-May-23 09:59N 45°27' E 012°15'0 0.0
2017-May-23 09:29N 45°27' E 012°15'0 0.0
2017-May-23 08:59N 45°27' E 012°15'0 0.0
2017-May-23 08:29N 45°27' E 012°15'0 0.0
2017-May-23 07:59N 45°27' E 012°15'0 0.0
2017-May-23 07:29N 45°27' E 012°15'0 0.8
2017-May-23 07:01N 45°27' E 012°16'3 6.3
2017-May-23 06:31N 45°24' E 012°16'4 7.8
2017-May-23 06:01N 45°20' E 012°18'5 9.5
2017-May-23 05:30N 45°20' E 012°25'3 5.6
2017-May-23 04:59N 45°21' E 012°29'0 0.0
2017-May-23 04:29N 45°21' E 012°29'0 0.1
2017-May-23 03:59N 45°21' E 012°29'0 0.5
2017-May-23 03:31N 45°21' E 012°29'4 7.2
2017-May-23 03:00N 45°18' E 012°31'4 8.2
2017-May-23 02:31N 45°15' E 012°36'4 8.4
2017-May-23 02:00N 45°12' E 012°41'4 8.6
2017-May-23 01:31N 45°10' E 012°45'4 8.3
2017-May-23 01:01N 45°06' E 012°49'4 8.5
2017-May-23 00:31N 45°03' E 012°51'4 8.9
2017-May-23 00:01N 44°59' E 012°54'4 8.6
2017-May-22 23:31N 44°55' E 012°56'4 8.6
2017-May-22 23:01N 44°50' E 012°56'4 8.1
2017-May-22 22:31N 44°47' E 012°53'4 8.6
2017-May-22 22:01N 44°45' E 012°48'4 8.1
2017-May-22 21:31N 44°43' E 012°43'4 8.3
2017-May-22 21:01N 44°39' E 012°41'4 8.4
2017-May-22 20:30N 44°35' E 012°39'4 8.7
2017-May-22 20:00N 44°31' E 012°38'3 7.1
2017-May-22 19:30N 44°28' E 012°36'4 8.5
2017-May-22 19:01N 44°29' E 012°30'4 8.6
2017-May-22 18:31N 44°30' E 012°25'4 7.5
2017-May-22 18:00N 44°30' E 012°19'3 5.8
2017-May-22 17:30N 44°29' E 012°16'2 3.6
2017-May-22 17:00N 44°27' E 012°15'0 0.0
2017-May-22 16:27N 44°27' E 012°15'0 0.0
2017-May-22 16:00N 44°27' E 012°15'0 0.0
2017-May-22 15:30N 44°27' E 012°15'0 0.0
2017-May-22 15:00N 44°27' E 012°15'0 0.0
2017-May-22 14:24N 44°27' E 012°15'0 0.0
2017-May-22 09:30N 44°27' E 012°15'0 0.0
2017-May-22 08:54N 44°27' E 012°15'0 0.0
2017-May-22 06:45N 44°27' E 012°15'0 0.0
2017-May-22 06:30N 44°27' E 012°15'0 0.8
2017-May-22 06:00N 44°27' E 012°15'1 2.9
2017-May-22 05:30N 44°28' E 012°15'3 5.1
2017-May-22 05:00N 44°30' E 012°18'3 5.5
2017-May-22 04:30N 44°30' E 012°22'3 5.2
2017-May-22 04:00N 44°30' E 012°25'1 2.5
2017-May-22 03:30N 44°30' E 012°27'0 0.0
2017-May-22 03:00N 44°30' E 012°27'0 0.0
2017-May-22 02:27N 44°30' E 012°27'0 0.0
2017-May-22 02:00N 44°30' E 012°27'0 0.0
2017-May-22 01:30N 44°30' E 012°27'0 0.0
2017-May-22 01:00N 44°30' E 012°27'0 0.0
2017-May-21 23:48N 44°30' E 012°27'0 0.0
2017-May-21 23:06N 44°30' E 012°27'0 0.0
2017-May-21 22:48N 44°30' E 012°27'3 1.2
2017-May-21 20:33N 44°29' E 012°31'2 9.1
2017-May-21 20:19N 44°30' E 012°34'711.5
2017-May-21 19:42N 44°35' E 012°41'314.2
2017-May-21 19:30N 44°37' E 012°43'714.3
2017-May-21 19:00N 44°44' E 012°47'714.1
2017-May-21 18:30N 44°50' E 012°52'714.0
2017-May-21 18:01N 44°56' E 012°56'714.2
2017-May-21 17:31N 45°03' E 012°59'714.2
2017-May-21 17:01N 45°10' E 013°01'714.2
2017-May-21 16:30N 45°17' E 013°02'713.8
2017-May-21 16:00N 45°24' E 013°05'714.5
2017-May-21 15:30N 45°29' E 013°12'714.3
2017-May-21 15:00N 45°34' E 013°19'1413.8
2017-May-21 14:00N 45°39' E 013°38'4 8.6
2017-May-21 13:30N 45°38' E 013°44'1 2.7
2017-May-21 12:59N 45°38' E 013°46'0 0.0
2017-May-21 12:29N 45°38' E 013°46'0 0.0
2017-May-21 11:59N 45°38' E 013°46'0 0.0
2017-May-21 11:29N 45°38' E 013°46'0 0.0
2017-May-21 10:59N 45°38' E 013°46'0 0.0
2017-May-21 10:29N 45°38' E 013°46'0 0.0
2017-May-21 09:53N 45°38' E 013°46'0 0.0
2017-May-21 09:17N 45°38' E 013°46'0 0.0
2017-May-21 08:59N 45°38' E 013°46'0 0.0
2017-May-21 08:29N 45°38' E 013°46'0 0.0
2017-May-21 07:59N 45°38' E 013°46'0 0.0
2017-May-21 07:29N 45°38' E 013°46'0 0.0
2017-May-21 06:53N 45°38' E 013°46'0 0.0
2017-May-21 06:29N 45°38' E 013°46'0 0.0
2017-May-21 05:59N 45°38' E 013°46'0 0.0
2017-May-21 05:29N 45°38' E 013°46'0 0.0
2017-May-21 04:59N 45°38' E 013°46'0 0.0
2017-May-21 04:29N 45°38' E 013°46'0 0.0
2017-May-21 03:59N 45°38' E 013°46'0 0.0
2017-May-21 03:29N 45°38' E 013°46'0 0.0
2017-May-21 02:59N 45°38' E 013°46'0 0.0
2017-May-21 02:29N 45°38' E 013°46'0 0.0
2017-May-21 01:59N 45°38' E 013°46'0 0.0
2017-May-21 01:29N 45°38' E 013°46'0 0.0
2017-May-21 00:59N 45°38' E 013°46'0 0.0
2017-May-21 00:29N 45°38' E 013°46'0 0.0
2017-May-20 23:59N 45°38' E 013°46'0 0.2
2017-May-20 23:30N 45°38' E 013°46'2 4.4
2017-May-20 23:01N 45°38' E 013°43'2 3.6
2017-May-20 22:30N 45°39' E 013°40'4 8.2
2017-May-20 22:01N 45°35' E 013°41'3 5.3
2017-May-20 21:30N 45°33' E 013°44'0 0.6
2017-May-20 20:59N 45°33' E 013°44'0 0.0
2017-May-20 20:29N 45°33' E 013°44'0 0.0
2017-May-20 19:59N 45°33' E 013°44'0 0.0
2017-May-20 19:29N 45°33' E 013°44'0 0.0
2017-May-20 18:59N 45°33' E 013°44'0 0.0
2017-May-20 18:29N 45°33' E 013°44'0 0.0
2017-May-20 17:59N 45°33' E 013°44'0 0.0
2017-May-20 17:29N 45°33' E 013°44'0 0.0
2017-May-20 16:59N 45°33' E 013°44'0 0.0
2017-May-20 16:23N 45°33' E 013°44'0 0.0
2017-May-20 15:53N 45°33' E 013°44'0 0.0
2017-May-20 15:29N 45°33' E 013°44'0 0.0
2017-May-20 14:59N 45°33' E 013°44'0 0.0
2017-May-20 13:53N 45°33' E 013°44'0 0.0
2017-May-20 13:29N 45°33' E 013°44'0 0.0
2017-May-20 12:59N 45°33' E 013°44'0 0.0
2017-May-20 12:29N 45°33' E 013°44'0 0.0
2017-May-20 11:50N 45°33' E 013°44'0 0.0
2017-May-20 11:29N 45°33' E 013°44'0 0.0
2017-May-20 10:53N 45°33' E 013°44'0 0.0
2017-May-20 10:29N 45°33' E 013°44'0 0.0
2017-May-20 09:59N 45°33' E 013°44'0 0.0
2017-May-20 09:29N 45°33' E 013°44'0 0.0
2017-May-20 08:59N 45°33' E 013°44'0 0.0
2017-May-20 08:26N 45°33' E 013°44'0 0.0
2017-May-20 07:59N 45°33' E 013°44'0 0.0
2017-May-20 07:29N 45°33' E 013°44'0 0.2
2017-May-20 07:00N 45°33' E 013°44'3 5.2
2017-May-20 06:31N 45°34' E 013°41'0 0.3
2017-May-20 06:00N 45°34' E 013°41'0 0.1
2017-May-20 05:30N 45°34' E 013°41'0 0.0
2017-May-20 05:00N 45°34' E 013°41'0 0.0
2017-May-20 04:30N 45°34' E 013°41'0 0.0
2017-May-20 04:00N 45°34' E 013°41'0 0.6
2017-May-20 03:30N 45°34' E 013°40'3 5.2
2017-May-20 03:00N 45°35' E 013°37'2 4.4
2017-May-20 02:30N 45°35' E 013°33'3 6.0
2017-May-20 02:00N 45°34' E 013°29'510.5
2017-May-20 01:30N 45°31' E 013°23'511.0
2017-May-20 01:00N 45°27' E 013°18'611.3
2017-May-20 00:30N 45°22' E 013°12'611.0
2017-May-20 00:00N 45°17' E 013°13'611.5
2017-May-19 23:30N 45°11' E 013°15'611.4
2017-May-19 23:00N 45°06' E 013°18'611.4
2017-May-19 22:30N 45°01' E 013°21'611.7
2017-May-19 22:00N 44°56' E 013°25'611.6
2017-May-19 21:30N 44°51' E 013°29'611.5
2017-May-19 21:00N 44°46' E 013°33'611.7
2017-May-19 20:30N 44°41' E 013°38'611.6
2017-May-19 20:00N 44°36' E 013°42'611.7
2017-May-19 19:30N 44°31' E 013°47'611.8
2017-May-19 19:00N 44°26' E 013°51'612.1
2017-May-19 18:30N 44°21' E 013°56'611.8
2017-May-19 18:00N 44°16' E 014°01'611.9
2017-May-19 17:30N 44°11' E 014°05'612.1
2017-May-19 17:00N 44°06' E 014°10'713.9
2017-May-19 16:30N 44°01' E 014°16'1214.0
2017-May-19 15:40N 43°52' E 014°26'214.1
2017-May-19 15:30N 43°50' E 014°28'2214.4
2017-May-19 13:58N 43°32' E 014°46'714.5
2017-May-19 13:30N 43°26' E 014°51'714.6
2017-May-19 13:00N 43°20' E 014°57'714.7
2017-May-19 12:30N 43°14' E 015°03'20414.4
2017-May-18 22:23N 40°49' E 018°15'1314.2
2017-May-18 21:30N 40°40' E 018°27'714.3
2017-May-18 21:00N 40°34' E 018°32'713.9
2017-May-18 20:29N 40°29' E 018°38'714.0
2017-May-18 19:59N 40°22' E 018°42'1213.8
2017-May-18 19:08N 40°13' E 018°50'314.5
2017-May-18 18:57N 40°10' E 018°52'  

Dump ship's entire track history